La Crosse, Kansas
Current Conditions -  °F | °C
As of 4:15 PM on Sunday 23 Nov 2014 (Local Time) from KHYS Reporting Station
Clear Clear  
Wind Chill: 39°   Ceiling: Unl
Heat Index: 46°   Visibility: 10mi
Dew Point: 25°   Wind: 21mph
Humidity: 43%   Direction: 350°N
Pressure: 29.61"   Gusts: 32mph
Location:  38.53°N, 99.31°W
Report Text: KHYS 232215Z AUTO 35018G28KT 10SM CLR 08/M04 A2961 RMK AO1
Loading
Personal Weather Stations






























Interactive Weather Map New forecast layout! Learn more

10-Day Weather Forecast

Advertisements
Track Severe Weather on mobile